Time;durP1;ratioP1;P1;durP2;ratioP2;P2;SDS_P1;SDS_P2;PMS_P1;PMS_P2;Temp;Humidity;BMP_temperature;BMP_pressure;BME280_temperature;BME280_humidity;BME280_pressure;Samples;Min_cycle;Max_cycle;Signal;HPM_P1;HPM_P2
2023/04/19 00:00:25;;;;;;;3.03;1.47;;;7.90;99.90;;;;;;5025568;28;20294;-84
2023/04/19 00:02:52;;;;;;;1.47;1.17;;;7.90;99.90;;;;;;5026487;28;20760;-84
2023/04/19 00:05:23;;;;;;;1.13;1.03;;;7.90;99.90;;;;;;5010656;28;20667;-84
2023/04/19 00:07:49;;;;;;;0.60;0.60;;;7.90;99.90;;;;;;5010821;28;20622;-83
2023/04/19 00:10:16;;;;;;;2.47;2.07;;;7.90;99.90;;;;;;5025925;28;20217;-85
2023/04/19 00:12:41;;;;;;;1.20;1.10;;;7.80;99.90;;;;;;5010869;28;20198;-85
2023/04/19 00:15:07;;;;;;;1.40;1.30;;;7.80;99.90;;;;;;5025935;28;20175;-83
2023/04/19 00:17:34;;;;;;;2.30;2.10;;;7.80;99.90;;;;;;5010078;28;20637;-84
2023/04/19 00:20:00;;;;;;;1.27;1.10;;;7.80;99.90;;;;;;5010785;28;20183;-84
2023/04/19 00:22:25;;;;;;;2.83;2.63;;;7.80;99.90;;;;;;5010487;28;20253;-83
2023/04/19 00:24:52;;;;;;;5.23;2.17;;;7.80;99.90;;;;;;5010420;28;20195;-83
2023/04/19 00:27:18;;;;;;;2.00;1.87;;;7.80;99.90;;;;;;5010177;28;20527;-83
2023/04/19 00:29:43;;;;;;;2.87;2.13;;;7.70;99.90;;;;;;5025329;28;20186;-84
2023/04/19 00:32:10;;;;;;;1.83;1.50;;;7.70;99.90;;;;;;5010109;28;20243;-83
2023/04/19 00:34:36;;;;;;;1.70;1.37;;;7.60;99.90;;;;;;5025353;28;20253;-83
2023/04/19 00:37:04;;;;;;;2.23;2.10;;;7.50;99.90;;;;;;5010273;28;20621;-83
2023/04/19 00:39:30;;;;;;;2.87;2.20;;;7.50;99.90;;;;;;5025037;28;20180;-83
2023/04/19 00:41:58;;;;;;;5.50;2.47;;;7.40;99.90;;;;;;5010122;28;20576;-83
2023/04/19 00:44:24;;;;;;;1.97;1.87;;;7.40;99.90;;;;;;5024800;28;20749;-83
2023/04/19 00:46:50;;;;;;;1.87;1.77;;;7.40;99.90;;;;;;5010148;28;20203;-83
2023/04/19 00:49:17;;;;;;;3.67;2.10;;;7.40;99.90;;;;;;5025070;28;20171;-84
2023/04/19 00:51:43;;;;;;;3.03;2.73;;;7.30;99.90;;;;;;5025138;28;20297;-83
2023/04/19 00:54:09;;;;;;;3.37;2.53;;;7.20;99.90;;;;;;5010212;28;20188;-84
2023/04/19 00:56:35;;;;;;;4.03;2.60;;;7.30;99.90;;;;;;5025247;28;20187;-84
2023/04/19 00:59:01;;;;;;;2.80;1.60;;;7.30;99.90;;;;;;5025141;28;20691;-83
2023/04/19 01:01:27;;;;;;;10.53;2.47;;;7.30;99.90;;;;;;5009356;28;20546;-83
2023/04/19 01:03:54;;;;;;;3.67;2.57;;;7.30;99.90;;;;;;5009581;28;20187;-83
2023/04/19 01:06:19;;;;;;;2.77;1.80;;;7.40;99.90;;;;;;5024854;28;20535;-83
2023/04/19 01:08:46;;;;;;;4.20;2.87;;;7.50;99.90;;;;;;5024535;28;20270;-83
2023/04/19 01:11:11;;;;;;;1.83;1.60;;;7.50;99.90;;;;;;5024684;28;20211;-84
2023/04/19 01:13:37;;;;;;;2.57;2.37;;;7.60;99.90;;;;;;5009512;28;20210;-83
2023/04/19 01:16:03;;;;;;;2.70;2.47;;;7.60;99.90;;;;;;5024510;28;20184;-83
2023/04/19 01:18:34;;;;;;;2.97;2.50;;;7.60;99.90;;;;;;5009492;28;20195;-83
2023/04/19 01:21:00;;;;;;;2.03;1.83;;;7.70;99.90;;;;;;5009328;28;20190;-84
2023/04/19 01:23:25;;;;;;;4.13;2.63;;;7.70;99.90;;;;;;5024119;28;20271;-83
2023/04/19 01:25:51;;;;;;;2.73;2.00;;;7.60;99.90;;;;;;5023593;28;20837;-84
2023/04/19 01:28:17;;;;;;;2.53;2.20;;;7.60;99.90;;;;;;5023117;28;20207;-84
2023/04/19 01:30:43;;;;;;;2.43;2.30;;;7.50;99.90;;;;;;5023545;28;20800;-83
2023/04/19 01:33:08;;;;;;;2.87;1.93;;;7.50;99.90;;;;;;5019706;28;20231;-84
2023/04/19 01:35:34;;;;;;;4.40;2.57;;;7.40;99.90;;;;;;5024417;28;20194;-83
2023/04/19 01:38:00;;;;;;;2.07;1.80;;;7.40;99.90;;;;;;5024220;28;20183;-84
2023/04/19 01:40:26;;;;;;;4.63;1.87;;;7.40;99.90;;;;;;5024241;28;20184;-83
2023/04/19 01:42:52;;;;;;;1.60;1.50;;;7.40;99.90;;;;;;5023900;28;20664;-83
2023/04/19 01:45:18;;;;;;;2.57;2.10;;;7.50;99.90;;;;;;5008271;28;20199;-85
2023/04/19 01:47:44;;;;;;;6.07;2.33;;;7.50;99.90;;;;;;5008524;28;20195;-83
2023/04/19 01:50:10;;;;;;;2.97;1.53;;;7.60;99.90;;;;;;5008660;28;20753;-83
2023/04/19 01:52:36;;;;;;;1.53;1.43;;;7.60;99.90;;;;;;5008102;28;20226;-83
2023/04/19 01:55:01;;;;;;;4.07;1.87;;;7.60;99.90;;;;;;5024067;28;20184;-84
2023/04/19 01:57:30;;;;;;;3.10;2.30;;;7.60;99.90;;;;;;5023972;28;20655;-84
2023/04/19 01:59:56;;;;;;;5.03;3.47;;;7.60;99.90;;;;;;5024243;28;20183;-84
2023/04/19 02:02:22;;;;;;;2.67;2.47;;;7.70;99.90;;;;;;5024138;28;20193;-84
2023/04/19 02:04:48;;;;;;;3.13;2.53;;;7.70;99.90;;;;;;5024357;28;20179;-84
2023/04/19 02:07:13;;;;;;;3.33;2.47;;;7.70;99.90;;;;;;5009003;28;20271;-82
2023/04/19 02:09:39;;;;;;;4.17;2.87;;;7.60;99.90;;;;;;5024176;28;20180;-83
2023/04/19 02:12:05;;;;;;;5.57;3.00;;;7.70;99.90;;;;;;5008855;28;20269;-84
2023/04/19 02:14:31;;;;;;;3.97;3.27;;;7.60;99.90;;;;;;5008601;28;20203;-84
2023/04/19 02:16:57;;;;;;;7.10;2.13;;;7.60;99.90;;;;;;5008701;28;20253;-84
2023/04/19 02:19:23;;;;;;;1.83;1.67;;;7.60;99.90;;;;;;5008562;28;20207;-83
2023/04/19 02:21:48;;;;;;;4.50;2.87;;;7.60;99.90;;;;;;5008210;28;20600;-84
2023/04/19 02:24:14;;;;;;;2.37;2.00;;;7.60;99.90;;;;;;5008620;28;20187;-85
2023/04/19 02:26:40;;;;;;;3.37;2.60;;;7.50;99.90;;;;;;5024035;28;20183;-85
2023/04/19 02:29:06;;;;;;;3.57;2.83;;;7.50;99.90;;;;;;5023852;28;20520;-84
2023/04/19 02:31:32;;;;;;;2.90;2.67;;;7.50;99.90;;;;;;5008532;28;20223;-84
2023/04/19 02:33:57;;;;;;;4.50;3.13;;;7.50;99.90;;;;;;5023966;28;20183;-84
2023/04/19 02:36:23;;;;;;;2.57;2.43;;;7.40;99.90;;;;;;5023798;28;20270;-84
2023/04/19 02:38:49;;;;;;;3.47;2.30;;;7.40;99.90;;;;;;5008633;28;20233;-84
2023/04/19 02:41:15;;;;;;;3.73;3.37;;;7.40;99.90;;;;;;5011887;28;20192;-85
2023/04/19 02:43:40;;;;;;;3.50;2.57;;;7.30;99.90;;;;;;5028101;28;20271;-84
2023/04/19 02:46:06;;;;;;;3.33;2.80;;;7.30;99.90;;;;;;5011365;28;20919;-84
2023/04/19 02:48:32;;;;;;;6.13;3.83;;;7.20;99.90;;;;;;5027629;28;20229;-85
2023/04/19 02:50:58;;;;;;;5.67;2.57;;;7.20;99.90;;;;;;5027753;28;20214;-84
2023/04/19 02:53:24;;;;;;;4.33;3.27;;;7.20;99.90;;;;;;5028046;28;20242;-84
2023/04/19 02:55:50;;;;;;;4.73;3.07;;;7.20;99.90;;;;;;5027618;28;20183;-84
2023/04/19 02:58:15;;;;;;;3.30;3.00;;;7.10;99.90;;;;;;5012469;28;20290;-85
2023/04/19 03:00:41;;;;;;;3.10;2.80;;;7.10;99.90;;;;;;5027216;28;20266;-84
2023/04/19 03:03:08;;;;;;;9.37;3.83;;;7.10;99.90;;;;;;5027479;28;20179;-84
2023/04/19 03:05:34;;;;;;;3.20;2.60;;;7.10;99.90;;;;;;5012098;28;20215;-85
2023/04/19 03:08:00;;;;;;;7.50;2.20;;;7.00;99.90;;;;;;5027227;28;20221;-84
2023/04/19 03:10:25;;;;;;;2.63;2.40;;;7.00;99.90;;;;;;5011820;28;20214;-83
2023/04/19 03:12:51;;;;;;;3.30;3.07;;;6.90;99.90;;;;;;5012124;28;20191;-84
2023/04/19 03:15:18;;;;;;;4.80;3.63;;;6.90;99.90;;;;;;5011899;28;20245;-85
2023/04/19 03:17:44;;;;;;;4.87;2.23;;;6.90;99.90;;;;;;5027199;28;20327;-85
2023/04/19 03:20:10;;;;;;;2.20;1.97;;;6.80;99.90;;;;;;5027267;28;20651;-86
2023/04/19 03:22:36;;;;;;;3.53;3.23;;;6.80;99.90;;;;;;5027067;28;20183;-84
2023/04/19 03:25:03;;;;;;;4.23;2.17;;;6.80;99.90;;;;;;5027198;28;20187;-86
2023/04/19 03:27:29;;;;;;;2.87;2.57;;;6.70;99.90;;;;;;5011614;28;20230;-84
2023/04/19 03:29:56;;;;;;;2.87;2.17;;;6.70;99.90;;;;;;5010406;28;20188;-84
2023/04/19 03:32:21;;;;;;;4.20;2.27;;;6.70;99.90;;;;;;5011713;28;20249;-84
2023/04/19 03:34:47;;;;;;;4.20;2.53;;;6.70;99.90;;;;;;5011789;28;20191;-84
2023/04/19 03:37:13;;;;;;;2.43;2.20;;;6.60;99.90;;;;;;5027031;28;20656;-85
2023/04/19 03:39:39;;;;;;;2.33;2.10;;;6.60;99.90;;;;;;5027143;28;20194;-84
2023/04/19 03:42:04;;;;;;;3.53;2.40;;;6.50;99.90;;;;;;5026499;28;20559;-84
2023/04/19 03:44:32;;;;;;;1.40;1.30;;;6.50;99.90;;;;;;5011399;28;20254;-84
2023/04/19 03:46:58;;;;;;;2.20;1.83;;;6.50;99.90;;;;;;5026991;28;20202;-84
2023/04/19 03:49:24;;;;;;;15.67;3.10;;;6.40;99.90;;;;;;5026441;28;20215;-83
2023/04/19 03:51:50;;;;;;;3.27;2.47;;;6.40;99.90;;;;;;5025725;28;20261;-84
2023/04/19 03:54:15;;;;;;;2.77;2.57;;;6.40;99.90;;;;;;5011272;28;20195;-84
2023/04/19 03:56:41;;;;;;;2.20;2.07;;;6.40;99.90;;;;;;5026174;28;20186;-84
2023/04/19 03:59:08;;;;;;;1.87;1.70;;;6.40;99.90;;;;;;5025098;28;20637;-84
2023/04/19 04:01:34;;;;;;;3.17;1.70;;;6.30;99.90;;;;;;5009936;28;20274;-85
2023/04/19 04:04:00;;;;;;;2.30;2.07;;;6.30;99.90;;;;;;5009918;28;20820;-86
2023/04/19 04:06:26;;;;;;;3.00;2.57;;;6.20;99.90;;;;;;5025101;28;20206;-84
2023/04/19 04:08:51;;;;;;;3.97;2.57;;;6.10;99.90;;;;;;5024985;28;20776;-85
2023/04/19 04:11:17;;;;;;;2.10;1.90;;;6.10;99.90;;;;;;5024900;28;20688;-85
2023/04/19 04:13:45;;;;;;;3.13;1.43;;;6.10;99.90;;;;;;5024538;28;20683;-85
2023/04/19 04:16:11;;;;;;;2.50;2.30;;;6.10;99.90;;;;;;5024792;28;20234;-86
2023/04/19 04:18:37;;;;;;;1.47;1.30;;;6.10;99.90;;;;;;5009099;28;20543;-85
2023/04/19 04:21:03;;;;;;;3.40;3.20;;;6.00;99.90;;;;;;5025319;28;20183;-84
2023/04/19 04:23:29;;;;;;;2.47;1.63;;;6.00;99.90;;;;;;5025090;28;20188;-85
2023/04/19 04:25:59;;;;;;;3.53;2.37;;;5.90;99.90;;;;;;5010313;28;20274;-84
2023/04/19 04:28:26;;;;;;;2.33;2.20;;;5.90;99.90;;;;;;5009814;28;20649;-83
2023/04/19 04:30:56;;;;;;;1.83;1.73;;;5.90;99.90;;;;;;5024855;28;20680;-84
2023/04/19 04:33:26;;;;;;;2.03;1.80;;;5.90;99.90;;;;;;5020900;28;20258;-85
2023/04/19 04:35:53;;;;;;;4.93;2.43;;;5.90;99.90;;;;;;5010345;28;20323;-84
2023/04/19 04:38:20;;;;;;;3.63;3.33;;;5.90;99.90;;;;;;5010474;28;20336;-84
2023/04/19 04:40:53;;;;;;;1.20;1.10;;;5.90;99.90;;;;;;5024428;28;20183;-85
2023/04/19 04:43:20;;;;;;;1.37;1.27;;;5.90;99.90;;;;;;5008943;28;20676;-84
2023/04/19 04:45:46;;;;;;;1.00;1.00;;;5.90;99.90;;;;;;5023970;28;20179;-86
2023/04/19 04:48:12;;;;;;;1.90;1.80;;;5.90;99.90;;;;;;5024000;28;20678;-85
2023/04/19 04:50:38;;;;;;;1.97;1.83;;;6.00;99.90;;;;;;5008881;28;20183;-84
2023/04/19 04:53:04;;;;;;;4.53;2.33;;;6.00;99.90;;;;;;5008864;28;20656;-84
2023/04/19 04:55:29;;;;;;;1.97;1.80;;;6.00;99.90;;;;;;5023627;28;20194;-84
2023/04/19 04:57:55;;;;;;;1.60;1.33;;;6.10;99.90;;;;;;5023824;28;20231;-86
2023/04/19 05:00:22;;;;;;;3.00;1.87;;;6.10;99.90;;;;;;5008520;28;20183;-84
2023/04/19 05:02:48;;;;;;;1.87;1.77;;;6.10;99.90;;;;;;5008725;28;20257;-84
2023/04/19 05:05:13;;;;;;;16.77;2.03;;;6.20;99.90;;;;;;5025066;28;20187;-83
2023/04/19 05:07:39;;;;;;;2.60;1.73;;;6.20;99.90;;;;;;5024657;28;20190;-85
2023/04/19 05:10:06;;;;;;;2.23;1.53;;;6.30;99.90;;;;;;5024438;28;20180;-84
2023/04/19 05:12:32;;;;;;;0.90;0.90;;;6.30;99.90;;;;;;5024337;28;20214;-85
2023/04/19 05:14:58;;;;;;;1.97;1.87;;;6.40;99.90;;;;;;5025018;28;20184;-84
2023/04/19 05:17:24;;;;;;;3.17;2.73;;;6.50;99.90;;;;;;5024516;28;20187;-84
2023/04/19 05:19:50;;;;;;;2.73;2.13;;;6.70;99.90;;;;;;5009544;28;20284;-84
2023/04/19 05:22:16;;;;;;;4.47;2.20;;;6.90;99.90;;;;;;5009323;28;20281;-84
2023/04/19 05:24:41;;;;;;;1.40;1.30;;;7.00;99.90;;;;;;5007476;28;20180;-85
2023/04/19 05:27:08;;;;;;;3.17;1.80;;;7.00;99.90;;;;;;5009266;28;20179;-84
2023/04/19 05:29:34;;;;;;;1.57;1.07;;;7.00;99.90;;;;;;5024318;28;20187;-84
2023/04/19 05:32:00;;;;;;;1.20;1.10;;;7.00;99.90;;;;;;5008971;28;20204;-84
2023/04/19 05:34:27;;;;;;;1.63;1.53;;;7.00;99.90;;;;;;5024430;28;20199;-85
2023/04/19 05:36:52;;;;;;;1.87;1.77;;;7.00;99.90;;;;;;5024721;28;20199;-85
2023/04/19 05:39:18;;;;;;;2.70;1.50;;;7.10;99.90;;;;;;5023381;28;20249;-84
2023/04/19 05:41:46;;;;;;;4.13;2.43;;;7.30;99.90;;;;;;5023290;28;20187;-86
2023/04/19 05:44:12;;;;;;;1.57;1.47;;;7.50;99.90;;;;;;5008651;28;20191;-85
2023/04/19 05:46:38;;;;;;;1.33;1.33;;;7.90;99.90;;;;;;5007959;28;20187;-83
2023/04/19 05:49:04;;;;;;;0.97;0.97;;;8.40;99.90;;;;;;5007978;28;20275;-85
2023/04/19 05:51:30;;;;;;;3.70;1.43;;;8.80;99.90;;;;;;5023860;28;20219;-84
2023/04/19 05:53:56;;;;;;;2.10;1.87;;;9.10;99.90;;;;;;5024269;28;20180;-83
2023/04/19 05:56:22;;;;;;;2.57;1.50;;;9.60;99.90;;;;;;5023939;28;20253;-83
2023/04/19 05:58:47;;;;;;;2.13;2.03;;;10.20;99.90;;;;;;5023516;28;20184;-83
2023/04/19 06:01:13;;;;;;;1.80;1.70;;;10.60;99.90;;;;;;5008373;28;20191;-85
2023/04/19 06:03:39;;;;;;;3.20;2.27;;;10.90;99.90;;;;;;5023140;28;20183;-83
2023/04/19 06:06:05;;;;;;;5.30;2.77;;;11.20;99.90;;;;;;5008296;28;20651;-84
2023/04/19 06:08:33;;;;;;;3.13;1.80;;;12.10;99.90;;;;;;5023191;28;20187;-84
2023/04/19 06:10:59;;;;;;;2.70;2.33;;;12.10;99.90;;;;;;5023547;28;20569;-83
2023/04/19 06:13:25;;;;;;;2.53;2.07;;;12.20;99.90;;;;;;5024119;28;20195;-84
2023/04/19 06:15:51;;;;;;;1.83;1.47;;;12.30;99.90;;;;;;5026473;28;20696;-84
2023/04/19 06:18:19;;;;;;;1.47;1.37;;;12.10;99.90;;;;;;5028217;28;20684;-83
2023/04/19 06:20:45;;;;;;;4.30;1.83;;;11.60;99.90;;;;;;5028264;28;20671;-84
2023/04/19 06:23:11;;;;;;;1.63;1.43;;;12.00;99.90;;;;;;5027803;28;20261;-84
2023/04/19 06:25:37;;;;;;;7.30;2.10;;;12.00;99.90;;;;;;5027499;28;20176;-82
2023/04/19 06:28:03;;;;;;;2.23;1.90;;;12.30;99.90;;;;;;5026785;28;20764;-81
2023/04/19 06:30:29;;;;;;;1.20;1.10;;;11.90;99.90;;;;;;5011866;28;20245;-81
2023/04/19 06:32:55;;;;;;;1.00;1.00;;;12.20;99.90;;;;;;5026424;28;20239;-82
2023/04/19 06:35:20;;;;;;;1.90;1.70;;;12.40;99.90;;;;;;5026729;28;20195;-83
2023/04/19 06:37:46;;;;;;;2.97;1.83;;;12.10;99.90;;;;;;5026784;28;20754;-81
2023/04/19 06:40:12;;;;;;;1.20;1.20;;;11.80;99.90;;;;;;5026829;28;20661;-85
2023/04/19 06:42:38;;;;;;;0.93;0.93;;;11.10;99.90;;;;;;5026726;28;20657;-83
2023/04/19 06:45:04;;;;;;;2.33;1.70;;;10.90;99.90;;;;;;5026703;28;20219;-83
2023/04/19 06:47:30;;;;;;;1.20;1.10;;;11.20;99.90;;;;;;5011404;28;20184;-81
2023/04/19 06:49:56;;;;;;;2.93;1.60;;;11.40;99.90;;;;;;5026945;28;20187;-83
2023/04/19 06:52:22;;;;;;;1.10;1.10;;;12.00;99.90;;;;;;5026856;28;20836;-82
2023/04/19 06:54:51;;;;;;;1.30;1.20;;;12.50;99.90;;;;;;5026819;28;20184;-82
2023/04/19 06:57:17;;;;;;;1.50;1.40;;;12.40;99.90;;;;;;5026388;28;20194;-82
2023/04/19 06:59:43;;;;;;;1.03;0.93;;;12.30;99.90;;;;;;5010583;28;20263;-82
2023/04/19 07:02:09;;;;;;;2.33;1.87;;;12.00;99.90;;;;;;5026055;28;20222;-83
2023/04/19 07:04:36;;;;;;;0.93;0.93;;;12.00;99.90;;;;;;5009407;28;20661;-83
2023/04/19 07:07:04;;;;;;;2.27;1.63;;;11.90;99.90;;;;;;5011075;28;20176;-83
2023/04/19 07:09:30;;;;;;;2.10;1.23;;;12.10;99.90;;;;;;5025910;28;20543;-82
2023/04/19 07:11:56;;;;;;;1.23;1.13;;;12.20;99.90;;;;;;5025559;28;20214;-84
2023/04/19 07:14:22;;;;;;;1.47;0.83;;;12.80;99.90;;;;;;5025898;28;20187;-83
2023/04/19 07:16:48;;;;;;;2.33;1.83;;;12.50;99.90;;;;;;5025778;28;20826;-82
2023/04/19 07:19:14;;;;;;;1.57;1.33;;;12.10;99.90;;;;;;5010832;28;20213;-82
2023/04/19 07:21:40;;;;;;;1.07;0.70;;;12.20;99.90;;;;;;5025669;28;20547;-83
2023/04/19 07:24:06;;;;;;;1.20;1.20;;;12.30;99.90;;;;;;5025793;28;20187;-83
2023/04/19 07:26:33;;;;;;;2.93;1.93;;;12.70;99.90;;;;;;5024318;28;20183;-82
2023/04/19 07:28:59;;;;;;;2.63;1.30;;;12.40;99.90;;;;;;5025954;28;20660;-83
2023/04/19 07:31:26;;;;;;;1.23;1.13;;;12.40;99.90;;;;;;5010303;28;20207;-82
2023/04/19 07:33:52;;;;;;;1.30;0.93;;;12.40;99.90;;;;;;5010119;28;20243;-83
2023/04/19 07:36:18;;;;;;;1.40;1.30;;;12.60;99.90;;;;;;5010324;28;20214;-82
2023/04/19 07:38:43;;;;;;;0.93;0.80;;;13.00;99.90;;;;;;5025187;28;20737;-82
2023/04/19 07:41:09;;;;;;;2.93;1.17;;;13.00;99.90;;;;;;5010443;28;20270;-83
2023/04/19 07:43:36;;;;;;;2.60;1.57;;;13.00;99.90;;;;;;5010102;28;20190;-82
2023/04/19 07:46:09;;;;;;;1.90;1.20;;;13.20;99.90;;;;;;5010186;28;20309;-82
2023/04/19 07:48:35;;;;;;;1.97;0.93;;;12.80;99.90;;;;;;5025223;28;20183;-83
2023/04/19 07:51:12;;;;;;;1.90;1.07;;;12.40;99.90;;;;;;5009951;28;20215;-83
2023/04/19 07:53:40;;;;;;;1.27;1.00;;;12.20;99.90;;;;;;5026008;28;20206;-83
2023/04/19 07:56:07;;;;;;;0.80;0.80;;;12.40;99.90;;;;;;5009047;28;20183;-83
2023/04/19 07:58:34;;;;;;;0.70;0.70;;;12.70;99.90;;;;;;5025739;28;20222;-83
2023/04/19 08:01:00;;;;;;;3.03;1.33;;;12.60;99.90;;;;;;5009514;28;20191;-84
2023/04/19 08:03:26;;;;;;;0.80;0.73;;;12.90;99.90;;;;;;5025482;28;20600;-83
2023/04/19 08:05:52;;;;;;;0.90;0.90;;;13.00;99.90;;;;;;5025518;28;20189;-82
2023/04/19 08:08:18;;;;;;;1.83;1.20;;;12.80;99.90;;;;;;5025511;28;20233;-82
2023/04/19 08:10:44;;;;;;;1.53;1.07;;;12.80;99.90;;;;;;5025218;28;20415;-83
2023/04/19 08:13:10;;;;;;;0.83;0.77;;;12.90;99.90;;;;;;5025126;28;20241;-83
2023/04/19 08:15:36;;;;;;;0.73;0.63;;;13.00;99.90;;;;;;5009778;28;20647;-82
2023/04/19 08:18:03;;;;;;;1.07;1.07;;;13.00;99.90;;;;;;5024858;28;20350;-83
2023/04/19 08:20:31;;;;;;;0.90;0.63;;;12.90;99.90;;;;;;5008459;28;20180;-82
2023/04/19 08:22:57;;;;;;;0.70;0.60;;;12.90;99.90;;;;;;5024967;28;20558;-82
2023/04/19 08:25:27;;;;;;;1.03;0.50;;;13.10;99.90;;;;;;5024979;28;20754;-82
2023/04/19 08:27:56;;;;;;;0.60;0.60;;;12.80;99.90;;;;;;5009357;28;20257;-83
2023/04/19 08:30:23;;;;;;;0.77;0.77;;;12.80;99.90;;;;;;5024824;28;20179;-82
2023/04/19 08:32:49;;;;;;;0.70;0.70;;;12.90;99.90;;;;;;5008937;28;20370;-82
2023/04/19 08:35:15;;;;;;;0.43;0.43;;;12.90;99.90;;;;;;5025020;28;20184;-83
2023/04/19 08:37:42;;;;;;;1.23;0.93;;;12.50;99.90;;;;;;5024399;28;20178;-83
2023/04/19 08:40:09;;;;;;;0.70;0.70;;;12.70;99.90;;;;;;5009630;28;20209;-82
2023/04/19 08:42:34;;;;;;;0.57;0.57;;;13.10;99.90;;;;;;5024311;28;20180;-82
2023/04/19 08:45:04;;;;;;;1.47;1.37;;;13.00;99.90;;;;;;5024646;28;20183;-83
2023/04/19 08:47:32;;;;;;;3.70;1.17;;;13.30;99.90;;;;;;5023929;28;20187;-83
2023/04/19 08:50:00;;;;;;;0.60;0.60;;;13.20;99.90;;;;;;5024430;28;20593;-83
2023/04/19 08:52:27;;;;;;;1.20;0.80;;;13.60;99.90;;;;;;5024251;28;20207;-83
2023/04/19 08:54:56;;;;;;;1.33;0.77;;;13.50;99.90;;;;;;5024139;28;20245;-83
2023/04/19 08:57:22;;;;;;;1.00;0.67;;;13.60;99.90;;;;;;5009315;28;20356;-82
2023/04/19 08:59:54;;;;;;;4.67;0.77;;;13.60;99.90;;;;;;5024119;28;20188;-83
2023/04/19 09:02:20;;;;;;;1.57;1.17;;;13.60;99.90;;;;;;5023706;28;20179;-82
2023/04/19 09:04:46;;;;;;;1.00;0.87;;;13.20;99.90;;;;;;5008913;28;20253;-82
2023/04/19 09:07:26;;;;;;;0.73;0.73;;;13.60;99.90;;;;;;5008890;28;20590;-82
2023/04/19 09:10:12;;;;;;;1.03;0.93;;;13.50;99.90;;;;;;5009086;28;20179;-83
2023/04/19 09:12:39;;;;;;;0.47;0.47;;;13.40;99.90;;;;;;5008548;28;20696;-83
2023/04/19 09:15:09;;;;;;;4.63;1.37;;;13.40;99.90;;;;;;5008881;28;20743;-83
2023/04/19 09:17:36;;;;;;;0.70;0.70;;;13.40;99.90;;;;;;5023543;28;20186;-83
2023/04/19 09:20:03;;;;;;;1.93;0.80;;;13.20;99.90;;;;;;5024138;28;20175;-83
2023/04/19 09:22:30;;;;;;;0.47;0.47;;;13.40;99.90;;;;;;5008676;28;20179;-83
2023/04/19 09:24:58;;;;;;;0.83;0.80;;;13.50;99.90;;;;;;5023930;28;20199;-83
2023/04/19 09:27:31;;;;;;;0.97;0.90;;;13.50;99.90;;;;;;5024113;28;20270;-82
2023/04/19 09:29:59;;;;;;;1.67;1.03;;;13.30;99.90;;;;;;5023007;28;20277;-83
2023/04/19 09:32:26;;;;;;;1.43;0.97;;;13.50;99.90;;;;;;5023284;28;20333;-82
2023/04/19 09:34:56;;;;;;;0.87;0.87;;;13.40;99.90;;;;;;5023275;28;20171;-82
2023/04/19 09:37:23;;;;;;;0.83;0.77;;;13.30;99.90;;;;;;5023044;28;20191;-83
2023/04/19 09:39:49;;;;;;;1.00;0.80;;;13.40;99.90;;;;;;5008603;28;20617;-83
2023/04/19 09:42:16;;;;;;;0.87;0.80;;;13.40;99.90;;;;;;5007177;28;20186;-83
2023/04/19 09:44:53;;;;;;;0.90;0.90;;;13.00;99.90;;;;;;5023211;28;20179;-83
2023/04/19 09:47:28;;;;;;;1.47;0.67;;;13.10;99.90;;;;;;5023849;28;20167;-83
2023/04/19 09:50:11;;;;;;;1.13;0.80;;;13.10;99.90;;;;;;5022505;28;20179;-85
2023/04/19 09:52:37;;;;;;;2.00;0.50;;;13.10;99.90;;;;;;5023326;28;20211;-84
2023/04/19 09:55:07;;;;;;;2.90;1.23;;;13.20;99.90;;;;;;5023453;28;20675;-83
2023/04/19 09:57:33;;;;;;;0.57;0.57;;;13.30;99.90;;;;;;5023424;28;20202;-83
2023/04/19 10:00:00;;;;;;;0.97;0.60;;;13.50;99.90;;;;;;5023627;28;20175;-83
2023/04/19 10:02:36;;;;;;;1.97;1.87;;;13.30;99.90;;;;;;5008101;28;20677;-83
2023/04/19 10:05:03;;;;;;;2.90;1.27;;;13.30;99.90;;;;;;5008481;28;20316;-83
2023/04/19 10:07:30;;;;;;;1.13;1.00;;;12.90;99.90;;;;;;5023445;28;20207;-83
2023/04/19 10:09:57;;;;;;;1.20;1.10;;;13.00;99.90;;;;;;5007755;28;20185;-83
2023/04/19 10:12:25;;;;;;;0.87;0.77;;;13.30;99.90;;;;;;5007949;28;20210;-83
2023/04/19 10:14:53;;;;;;;1.57;1.43;;;13.50;99.90;;;;;;5022984;28;20175;-83
2023/04/19 10:17:19;;;;;;;0.97;0.87;;;13.80;99.90;;;;;;5007708;28;20706;-83
2023/04/19 10:19:46;;;;;;;1.33;0.90;;;13.40;99.90;;;;;;5023028;28;20270;-83
2023/04/19 10:22:13;;;;;;;2.83;1.40;;;13.40;99.90;;;;;;5008227;28;20198;-83
2023/04/19 10:24:38;;;;;;;1.50;1.40;;;13.50;99.90;;;;;;5022946;28;20210;-83
2023/04/19 10:27:11;;;;;;;1.53;0.77;;;13.60;99.90;;;;;;5023589;28;20621;-84
2023/04/19 10:29:55;;;;;;;9.67;1.03;;;13.10;99.90;;;;;;5023444;28;20186;-82
2023/04/19 10:32:23;;;;;;;0.93;0.63;;;13.20;99.90;;;;;;5007837;28;20235;-83
2023/04/19 10:34:54;;;;;;;5.50;0.97;;;12.90;99.90;;;;;;5023200;28;20262;-83
2023/04/19 10:37:25;;;;;;;0.77;0.77;;;13.30;99.90;;;;;;5008196;28;20199;-83
2023/04/19 10:39:51;;;;;;;5.03;1.57;;;13.40;99.90;;;;;;5007782;28;20703;-84
2023/04/19 10:42:17;;;;;;;3.27;1.17;;;13.60;99.90;;;;;;5023197;28;20633;-84
2023/04/19 10:45:21;;;;;;;1.70;1.03;;;13.40;99.90;;;;;;5007662;28;20310;-83
2023/04/19 10:47:50;;;;;;;0.50;0.50;;;13.10;99.90;;;;;;5007390;28;20641;-83
2023/04/19 10:50:17;;;;;;;0.60;0.60;;;13.00;99.90;;;;;;5023420;28;20267;-85
2023/04/19 10:52:42;;;;;;;1.03;0.60;;;13.20;99.90;;;;;;5022856;28;20263;-84
2023/04/19 10:55:08;;;;;;;1.93;1.10;;;13.60;99.90;;;;;;5022663;28;20191;-83
2023/04/19 10:58:01;;;;;;;1.23;0.80;;;13.30;99.90;;;;;;5023116;28;20183;-84
2023/04/19 11:00:30;;;;;;;0.67;0.67;;;13.20;99.90;;;;;;5022488;28;20176;-83
2023/04/19 11:02:56;;;;;;;0.70;0.70;;;13.00;99.90;;;;;;5011427;28;20241;-83
2023/04/19 11:05:22;;;;;;;1.33;0.90;;;13.30;99.90;;;;;;5026835;28;20339;-83
2023/04/19 11:07:48;;;;;;;1.87;1.03;;;13.10;99.90;;;;;;5010975;28;20203;-83
2023/04/19 11:10:28;;;;;;;2.23;0.90;;;13.20;99.90;;;;;;5011265;28;20176;-83
2023/04/19 11:12:54;;;;;;;0.57;0.57;;;13.00;99.90;;;;;;5011168;28;20664;-83
2023/04/19 11:15:23;;;;;;;0.63;0.53;;;13.00;99.90;;;;;;5011001;28;20193;-83
2023/04/19 11:17:51;;;;;;;0.93;0.93;;;13.10;99.90;;;;;;5010946;28;20180;-82
2023/04/19 11:20:17;;;;;;;0.63;0.40;;;13.10;99.90;;;;;;5010830;28;20176;-83
2023/04/19 11:22:45;;;;;;;1.10;0.73;;;13.00;99.90;;;;;;5010699;28;20194;-83
2023/04/19 11:25:18;;;;;;;0.80;0.80;;;13.10;99.90;;;;;;5025985;28;20287;-82
2023/04/19 11:27:51;;;;;;;1.13;0.93;;;13.30;99.90;;;;;;5010768;28;20171;-84
2023/04/19 11:30:21;;;;;;;0.60;0.60;;;13.50;99.90;;;;;;5010603;28;20566;-83
2023/04/19 11:32:52;;;;;;;0.87;0.53;;;13.10;99.90;;;;;;5025609;28;20288;-83
2023/04/19 11:35:23;;;;;;;3.40;0.80;;;13.10;99.90;;;;;;5010861;28;20640;-83
2023/04/19 11:37:49;;;;;;;0.70;0.40;;;13.30;99.90;;;;;;5011030;28;20226;-84
2023/04/19 11:40:20;;;;;;;0.30;0.30;;;12.90;99.90;;;;;;5009505;28;20184;-84
2023/04/19 11:42:52;;;;;;;0.50;0.47;;;12.90;99.90;;;;;;5025182;28;20227;-84
2023/04/19 11:45:28;;;;;;;1.27;0.60;;;13.00;99.90;;;;;;5025446;28;20172;-83
2023/04/19 11:47:55;;;;;;;0.70;0.70;;;13.20;99.90;;;;;;5009832;28;20234;-82
2023/04/19 11:50:37;;;;;;;0.40;0.40;;;13.10;99.90;;;;;;5025656;28;20179;-82
2023/04/19 11:53:17;;;;;;;1.07;0.53;;;13.00;99.90;;;;;;5025309;28;20687;-83
2023/04/19 11:55:51;;;;;;;0.40;0.40;;;12.90;99.90;;;;;;5010058;28;20309;-83
2023/04/19 11:58:22;;;;;;;0.33;0.33;;;12.60;99.90;;;;;;5025429;28;20258;-84
2023/04/19 12:00:48;;;;;;;5.17;0.93;;;12.90;99.90;;;;;;5025366;28;20230;-84
2023/04/19 12:03:15;;;;;;;0.83;0.60;;;13.10;99.90;;;;;;5025639;28;20709;-84
2023/04/19 12:05:58;;;;;;;0.50;0.50;;;13.10;99.90;;;;;;5010039;28;20191;-84
2023/04/19 12:08:57;;;;;;;1.57;0.77;;;13.00;99.90;;;;;;5025432;28;20355;-82
2023/04/19 12:11:26;;;;;;;1.23;1.13;;;12.70;99.90;;;;;;5010358;28;20276;-81
2023/04/19 12:14:11;;;;;;;4.10;0.93;;;12.80;99.90;;;;;;5024202;28;20202;-82
2023/04/19 12:16:37;;;;;;;2.10;1.33;;;12.70;99.90;;;;;;5025234;28;20215;-82
2023/04/19 12:19:18;;;;;;;1.13;1.00;;;13.00;99.90;;;;;;5009504;28;20222;-82
2023/04/19 12:21:44;;;;;;;2.00;1.33;;;12.70;99.90;;;;;;5009821;28;20187;-81
2023/04/19 12:24:14;;;;;;;2.07;1.10;;;12.90;99.90;;;;;;5024689;28;20182;-81
2023/04/19 12:26:56;;;;;;;0.87;0.87;;;12.50;99.90;;;;;;5009651;28;20190;-81
2023/04/19 12:29:22;;;;;;;0.63;0.50;;;12.40;99.90;;;;;;5009526;28;20206;-81
2023/04/19 12:31:48;;;;;;;1.60;0.97;;;12.50;99.90;;;;;;5024597;28;20572;-81
2023/04/19 12:34:13;;;;;;;0.63;0.63;;;12.70;99.90;;;;;;5024708;28;20321;-81
2023/04/19 12:36:39;;;;;;;1.00;0.93;;;12.70;99.90;;;;;;5024540;28;20277;-81
2023/04/19 12:39:06;;;;;;;0.97;0.87;;;12.50;99.90;;;;;;5024307;28;20183;-81
2023/04/19 12:41:31;;;;;;;3.40;1.23;;;12.50;99.90;;;;;;5024661;28;20436;-81
2023/04/19 12:43:57;;;;;;;1.03;1.00;;;12.30;99.90;;;;;;5024338;28;20263;-81
2023/04/19 12:46:23;;;;;;;0.83;0.83;;;12.50;99.90;;;;;;5024133;28;20585;-81
2023/04/19 12:48:49;;;;;;;1.63;1.17;;;12.50;99.90;;;;;;5024113;28;20184;-81
2023/04/19 12:51:14;;;;;;;1.23;1.17;;;12.40;99.90;;;;;;5024173;28;20672;-82